sensor_id;sensor_type;location;lat;lon;timestamp;P1;durP1;ratioP1;P2;durP2;ratioP2
78542;SDS011;67836;52.430;14.446;2023-07-20T00:02:20;4.10;;;2.00;;
78542;SDS011;67836;52.430;14.446;2023-07-20T00:05:05;6.88;;;3.38;;
78542;SDS011;67836;52.430;14.446;2023-07-20T00:07:49;4.88;;;2.67;;
78542;SDS011;67836;52.430;14.446;2023-07-20T00:10:35;3.60;;;1.85;;
78542;SDS011;67836;52.430;14.446;2023-07-20T00:13:19;5.45;;;2.65;;
78542;SDS011;67836;52.430;14.446;2023-07-20T00:16:04;6.55;;;3.78;;
78542;SDS011;67836;52.430;14.446;2023-07-20T00:18:48;8.95;;;5.22;;
78542;SDS011;67836;52.430;14.446;2023-07-20T00:21:32;8.88;;;5.45;;
78542;SDS011;67836;52.430;14.446;2023-07-20T00:24:16;8.02;;;5.25;;
78542;SDS011;67836;52.430;14.446;2023-07-20T00:27:01;7.97;;;3.80;;
78542;SDS011;67836;52.430;14.446;2023-07-20T00:29:46;3.55;;;2.25;;
78542;SDS011;67836;52.430;14.446;2023-07-20T00:32:30;10.00;;;4.43;;
78542;SDS011;67836;52.430;14.446;2023-07-20T00:35:13;6.82;;;3.17;;
78542;SDS011;67836;52.430;14.446;2023-07-20T00:37:58;9.70;;;5.03;;
78542;SDS011;67836;52.430;14.446;2023-07-20T00:40:42;7.40;;;4.28;;
78542;SDS011;67836;52.430;14.446;2023-07-20T00:43:26;7.97;;;3.95;;
78542;SDS011;67836;52.430;14.446;2023-07-20T00:46:10;5.03;;;2.92;;
78542;SDS011;67836;52.430;14.446;2023-07-20T00:48:54;9.45;;;5.55;;
78542;SDS011;67836;52.430;14.446;2023-07-20T00:51:39;8.48;;;4.82;;
78542;SDS011;67836;52.430;14.446;2023-07-20T00:54:23;7.72;;;5.15;;
78542;SDS011;67836;52.430;14.446;2023-07-20T00:57:07;9.90;;;5.70;;
78542;SDS011;67836;52.430;14.446;2023-07-20T00:59:52;7.60;;;5.28;;
78542;SDS011;67836;52.430;14.446;2023-07-20T01:02:36;8.30;;;5.38;;
78542;SDS011;67836;52.430;14.446;2023-07-20T01:05:20;9.07;;;5.78;;
78542;SDS011;67836;52.430;14.446;2023-07-20T01:08:08;9.27;;;5.40;;
78542;SDS011;67836;52.430;14.446;2023-07-20T01:10:57;5.65;;;2.47;;
78542;SDS011;67836;52.430;14.446;2023-07-20T01:13:43;7.88;;;5.20;;
78542;SDS011;67836;52.430;14.446;2023-07-20T01:16:27;8.60;;;5.47;;
78542;SDS011;67836;52.430;14.446;2023-07-20T01:19:13;8.75;;;4.40;;
78542;SDS011;67836;52.430;14.446;2023-07-20T01:22:09;8.90;;;5.40;;
78542;SDS011;67836;52.430;14.446;2023-07-20T01:33:43;10.65;;;5.50;;
78542;SDS011;67836;52.430;14.446;2023-07-20T01:36:29;10.40;;;7.03;;
78542;SDS011;67836;52.430;14.446;2023-07-20T01:39:15;10.05;;;5.63;;
78542;SDS011;67836;52.430;14.446;2023-07-20T01:41:59;10.05;;;6.97;;
78542;SDS011;67836;52.430;14.446;2023-07-20T01:44:43;9.15;;;6.72;;
78542;SDS011;67836;52.430;14.446;2023-07-20T01:47:27;10.35;;;6.57;;
78542;SDS011;67836;52.430;14.446;2023-07-20T01:50:11;8.35;;;5.07;;
78542;SDS011;67836;52.430;14.446;2023-07-20T01:52:55;10.07;;;6.50;;
78542;SDS011;67836;52.430;14.446;2023-07-20T01:55:40;7.43;;;4.38;;
78542;SDS011;67836;52.430;14.446;2023-07-20T02:01:08;11.60;;;7.05;;
78542;SDS011;67836;52.430;14.446;2023-07-20T02:03:52;5.18;;;3.55;;
78542;SDS011;67836;52.430;14.446;2023-07-20T02:06:37;9.38;;;6.25;;
78542;SDS011;67836;52.430;14.446;2023-07-20T02:09:22;11.63;;;8.13;;
78542;SDS011;67836;52.430;14.446;2023-07-20T02:12:06;12.27;;;8.38;;
78542;SDS011;67836;52.430;14.446;2023-07-20T02:14:50;12.07;;;8.27;;
78542;SDS011;67836;52.430;14.446;2023-07-20T02:17:34;8.95;;;5.30;;
78542;SDS011;67836;52.430;14.446;2023-07-20T02:20:19;8.25;;;5.38;;
78542;SDS011;67836;52.430;14.446;2023-07-20T02:23:03;10.27;;;6.50;;
78542;SDS011;67836;52.430;14.446;2023-07-20T02:25:48;6.10;;;3.33;;
78542;SDS011;67836;52.430;14.446;2023-07-20T02:28:32;5.78;;;3.53;;
78542;SDS011;67836;52.430;14.446;2023-07-20T02:31:16;6.75;;;4.07;;
78542;SDS011;67836;52.430;14.446;2023-07-20T02:34:00;6.60;;;3.67;;
78542;SDS011;67836;52.430;14.446;2023-07-20T02:39:29;9.30;;;5.80;;
78542;SDS011;67836;52.430;14.446;2023-07-20T02:42:14;10.23;;;5.35;;
78542;SDS011;67836;52.430;14.446;2023-07-20T02:44:58;13.68;;;8.68;;
78542;SDS011;67836;52.430;14.446;2023-07-20T02:47:42;7.97;;;5.00;;
78542;SDS011;67836;52.430;14.446;2023-07-20T02:53:10;8.15;;;4.95;;
78542;SDS011;67836;52.430;14.446;2023-07-20T02:55:54;11.30;;;6.05;;
78542;SDS011;67836;52.430;14.446;2023-07-20T02:58:40;7.80;;;4.53;;
78542;SDS011;67836;52.430;14.446;2023-07-20T03:01:27;9.15;;;5.95;;
78542;SDS011;67836;52.430;14.446;2023-07-20T03:04:12;7.40;;;3.75;;
78542;SDS011;67836;52.430;14.446;2023-07-20T03:06:57;10.98;;;6.03;;
78542;SDS011;67836;52.430;14.446;2023-07-20T03:09:41;10.38;;;6.38;;
78542;SDS011;67836;52.430;14.446;2023-07-20T03:12:25;4.65;;;3.08;;
78542;SDS011;67836;52.430;14.446;2023-07-20T03:15:09;7.32;;;4.15;;
78542;SDS011;67836;52.430;14.446;2023-07-20T03:17:53;8.52;;;4.60;;
78542;SDS011;67836;52.430;14.446;2023-07-20T03:20:38;8.93;;;4.85;;
78542;SDS011;67836;52.430;14.446;2023-07-20T03:23:22;6.55;;;3.42;;
78542;SDS011;67836;52.430;14.446;2023-07-20T03:26:07;9.13;;;5.57;;
78542;SDS011;67836;52.430;14.446;2023-07-20T03:28:52;9.93;;;6.28;;
78542;SDS011;67836;52.430;14.446;2023-07-20T03:31:37;9.57;;;5.80;;
78542;SDS011;67836;52.430;14.446;2023-07-20T03:34:21;8.18;;;4.40;;
78542;SDS011;67836;52.430;14.446;2023-07-20T03:39:49;7.78;;;4.63;;
78542;SDS011;67836;52.430;14.446;2023-07-20T03:42:33;7.65;;;4.55;;
78542;SDS011;67836;52.430;14.446;2023-07-20T03:45:18;10.40;;;6.10;;
78542;SDS011;67836;52.430;14.446;2023-07-20T03:48:01;8.65;;;5.82;;
78542;SDS011;67836;52.430;14.446;2023-07-20T03:50:46;9.68;;;5.50;;
78542;SDS011;67836;52.430;14.446;2023-07-20T03:53:30;7.70;;;5.18;;
78542;SDS011;67836;52.430;14.446;2023-07-20T03:56:14;9.18;;;6.53;;
78542;SDS011;67836;52.430;14.446;2023-07-20T03:58:58;10.45;;;6.80;;
78542;SDS011;67836;52.430;14.446;2023-07-20T04:01:42;14.52;;;8.65;;
78542;SDS011;67836;52.430;14.446;2023-07-20T04:04:26;6.35;;;4.53;;
78542;SDS011;67836;52.430;14.446;2023-07-20T04:07:10;9.32;;;6.03;;
78542;SDS011;67836;52.430;14.446;2023-07-20T04:09:54;12.68;;;7.90;;
78542;SDS011;67836;52.430;14.446;2023-07-20T04:12:38;10.98;;;7.15;;
78542;SDS011;67836;52.430;14.446;2023-07-20T04:15:22;13.18;;;9.32;;
78542;SDS011;67836;52.430;14.446;2023-07-20T04:18:06;15.20;;;8.88;;
78542;SDS011;67836;52.430;14.446;2023-07-20T04:20:50;10.20;;;5.63;;
78542;SDS011;67836;52.430;14.446;2023-07-20T04:23:34;10.52;;;6.78;;
78542;SDS011;67836;52.430;14.446;2023-07-20T04:26:19;10.90;;;6.47;;
78542;SDS011;67836;52.430;14.446;2023-07-20T04:29:03;10.20;;;6.28;;
78542;SDS011;67836;52.430;14.446;2023-07-20T04:31:47;13.15;;;7.03;;
78542;SDS011;67836;52.430;14.446;2023-07-20T04:34:31;8.73;;;6.25;;
78542;SDS011;67836;52.430;14.446;2023-07-20T04:37:15;9.43;;;5.82;;
78542;SDS011;67836;52.430;14.446;2023-07-20T04:40:00;11.75;;;8.05;;
78542;SDS011;67836;52.430;14.446;2023-07-20T04:42:44;12.13;;;7.57;;
78542;SDS011;67836;52.430;14.446;2023-07-20T04:45:29;8.45;;;4.57;;
78542;SDS011;67836;52.430;14.446;2023-07-20T04:48:14;10.20;;;6.38;;
78542;SDS011;67836;52.430;14.446;2023-07-20T04:50:59;14.40;;;10.13;;
78542;SDS011;67836;52.430;14.446;2023-07-20T04:53:43;12.90;;;8.52;;
78542;SDS011;67836;52.430;14.446;2023-07-20T04:59:10;16.02;;;11.05;;
78542;SDS011;67836;52.430;14.446;2023-07-20T05:01:55;14.27;;;7.22;;
78542;SDS011;67836;52.430;14.446;2023-07-20T05:04:39;16.23;;;9.82;;
78542;SDS011;67836;52.430;14.446;2023-07-20T05:07:23;17.55;;;11.15;;
78542;SDS011;67836;52.430;14.446;2023-07-20T05:10:07;15.30;;;8.00;;
78542;SDS011;67836;52.430;14.446;2023-07-20T05:12:51;13.35;;;7.40;;
78542;SDS011;67836;52.430;14.446;2023-07-20T05:15:35;18.38;;;11.43;;
78542;SDS011;67836;52.430;14.446;2023-07-20T05:18:20;20.05;;;14.65;;
78542;SDS011;67836;52.430;14.446;2023-07-20T05:21:05;18.60;;;10.07;;
78542;SDS011;67836;52.430;14.446;2023-07-20T05:23:49;19.80;;;11.93;;
78542;SDS011;67836;52.430;14.446;2023-07-20T05:26:33;21.10;;;13.02;;
78542;SDS011;67836;52.430;14.446;2023-07-20T05:29:17;19.38;;;11.45;;
78542;SDS011;67836;52.430;14.446;2023-07-20T05:32:01;21.30;;;11.80;;
78542;SDS011;67836;52.430;14.446;2023-07-20T05:34:46;22.90;;;12.90;;
78542;SDS011;67836;52.430;14.446;2023-07-20T05:37:31;15.65;;;10.30;;
78542;SDS011;67836;52.430;14.446;2023-07-20T05:40:15;18.02;;;11.38;;
78542;SDS011;67836;52.430;14.446;2023-07-20T05:43:02;19.92;;;12.05;;
78542;SDS011;67836;52.430;14.446;2023-07-20T05:45:46;19.08;;;12.65;;
78542;SDS011;67836;52.430;14.446;2023-07-20T05:48:31;20.17;;;12.25;;
78542;SDS011;67836;52.430;14.446;2023-07-20T05:51:15;16.85;;;10.95;;
78542;SDS011;67836;52.430;14.446;2023-07-20T05:56:42;11.73;;;7.43;;
78542;SDS011;67836;52.430;14.446;2023-07-20T05:59:27;11.75;;;6.85;;
78542;SDS011;67836;52.430;14.446;2023-07-20T06:02:13;14.43;;;9.20;;
78542;SDS011;67836;52.430;14.446;2023-07-20T06:04:56;14.95;;;8.93;;
78542;SDS011;67836;52.430;14.446;2023-07-20T06:07:40;13.07;;;9.23;;
78542;SDS011;67836;52.430;14.446;2023-07-20T06:10:24;12.30;;;7.03;;
78542;SDS011;67836;52.430;14.446;2023-07-20T06:13:08;15.55;;;9.60;;
78542;SDS011;67836;52.430;14.446;2023-07-20T06:15:52;10.15;;;6.43;;
78542;SDS011;67836;52.430;14.446;2023-07-20T06:18:36;12.07;;;7.88;;
78542;SDS011;67836;52.430;14.446;2023-07-20T06:24:48;13.80;;;8.75;;
78542;SDS011;67836;52.430;14.446;2023-07-20T06:27:32;13.20;;;8.38;;
78542;SDS011;67836;52.430;14.446;2023-07-20T06:30:17;14.13;;;9.25;;
78542;SDS011;67836;52.430;14.446;2023-07-20T06:33:01;9.73;;;5.55;;
78542;SDS011;67836;52.430;14.446;2023-07-20T06:35:45;11.32;;;7.55;;
78542;SDS011;67836;52.430;14.446;2023-07-20T06:38:29;12.05;;;7.85;;
78542;SDS011;67836;52.430;14.446;2023-07-20T06:41:13;8.60;;;5.30;;
78542;SDS011;67836;52.430;14.446;2023-07-20T06:43:57;8.82;;;4.80;;
78542;SDS011;67836;52.430;14.446;2023-07-20T06:46:42;9.23;;;6.40;;
78542;SDS011;67836;52.430;14.446;2023-07-20T06:49:27;10.15;;;6.35;;
78542;SDS011;67836;52.430;14.446;2023-07-20T06:52:11;9.35;;;6.13;;
78542;SDS011;67836;52.430;14.446;2023-07-20T06:54:55;8.48;;;5.38;;
78542;SDS011;67836;52.430;14.446;2023-07-20T06:57:39;9.85;;;5.80;;
78542;SDS011;67836;52.430;14.446;2023-07-20T07:00:23;8.82;;;5.15;;
78542;SDS011;67836;52.430;14.446;2023-07-20T07:03:07;7.80;;;4.90;;
78542;SDS011;67836;52.430;14.446;2023-07-20T07:05:54;7.90;;;4.82;;
78542;SDS011;67836;52.430;14.446;2023-07-20T07:08:39;8.27;;;4.60;;
78542;SDS011;67836;52.430;14.446;2023-07-20T07:11:23;7.28;;;3.75;;
78542;SDS011;67836;52.430;14.446;2023-07-20T07:14:07;7.95;;;4.45;;
78542;SDS011;67836;52.430;14.446;2023-07-20T07:16:51;7.93;;;3.78;;
78542;SDS011;67836;52.430;14.446;2023-07-20T07:19:35;6.10;;;3.35;;
78542;SDS011;67836;52.430;14.446;2023-07-20T07:22:20;6.18;;;2.67;;
78542;SDS011;67836;52.430;14.446;2023-07-20T07:25:05;5.65;;;2.97;;
78542;SDS011;67836;52.430;14.446;2023-07-20T07:27:51;4.53;;;2.60;;
78542;SDS011;67836;52.430;14.446;2023-07-20T07:30:36;5.38;;;2.80;;
78542;SDS011;67836;52.430;14.446;2023-07-20T07:33:20;4.88;;;2.30;;
78542;SDS011;67836;52.430;14.446;2023-07-20T07:36:04;5.93;;;2.95;;
78542;SDS011;67836;52.430;14.446;2023-07-20T07:38:48;5.57;;;3.00;;
78542;SDS011;67836;52.430;14.446;2023-07-20T07:41:32;5.65;;;2.67;;
78542;SDS011;67836;52.430;14.446;2023-07-20T07:44:17;7.22;;;3.20;;
78542;SDS011;67836;52.430;14.446;2023-07-20T07:47:01;5.45;;;2.65;;
78542;SDS011;67836;52.430;14.446;2023-07-20T07:49:45;7.95;;;3.60;;
78542;SDS011;67836;52.430;14.446;2023-07-20T07:52:29;7.10;;;3.22;;
78542;SDS011;67836;52.430;14.446;2023-07-20T07:55:13;5.53;;;2.58;;
78542;SDS011;67836;52.430;14.446;2023-07-20T07:57:57;5.60;;;3.20;;
78542;SDS011;67836;52.430;14.446;2023-07-20T08:00:41;5.90;;;3.17;;
78542;SDS011;67836;52.430;14.446;2023-07-20T08:03:26;5.47;;;3.03;;
78542;SDS011;67836;52.430;14.446;2023-07-20T08:06:11;7.65;;;3.60;;
78542;SDS011;67836;52.430;14.446;2023-07-20T08:08:54;6.38;;;3.25;;
78542;SDS011;67836;52.430;14.446;2023-07-20T08:11:39;5.70;;;2.92;;
78542;SDS011;67836;52.430;14.446;2023-07-20T08:14:23;4.95;;;2.67;;
78542;SDS011;67836;52.430;14.446;2023-07-20T08:17:07;5.53;;;3.10;;
78542;SDS011;67836;52.430;14.446;2023-07-20T08:19:51;6.38;;;3.40;;
78542;SDS011;67836;52.430;14.446;2023-07-20T08:22:35;6.97;;;3.05;;
78542;SDS011;67836;52.430;14.446;2023-07-20T08:25:19;6.10;;;3.50;;
78542;SDS011;67836;52.430;14.446;2023-07-20T08:28:04;5.10;;;2.47;;
78542;SDS011;67836;52.430;14.446;2023-07-20T08:30:48;3.53;;;1.95;;
78542;SDS011;67836;52.430;14.446;2023-07-20T08:33:32;4.80;;;2.60;;
78542;SDS011;67836;52.430;14.446;2023-07-20T08:36:17;3.05;;;1.75;;
78542;SDS011;67836;52.430;14.446;2023-07-20T08:39:01;4.75;;;2.70;;
78542;SDS011;67836;52.430;14.446;2023-07-20T08:41:47;2.97;;;1.70;;
78542;SDS011;67836;52.430;14.446;2023-07-20T08:44:35;4.03;;;2.15;;
78542;SDS011;67836;52.430;14.446;2023-07-20T08:47:19;3.83;;;1.88;;
78542;SDS011;67836;52.430;14.446;2023-07-20T08:50:04;5.03;;;1.75;;
78542;SDS011;67836;52.430;14.446;2023-07-20T08:52:50;4.15;;;2.47;;
78542;SDS011;67836;52.430;14.446;2023-07-20T08:55:36;4.30;;;2.80;;
78542;SDS011;67836;52.430;14.446;2023-07-20T08:58:20;4.30;;;2.60;;
78542;SDS011;67836;52.430;14.446;2023-07-20T09:01:04;8.73;;;5.13;;
78542;SDS011;67836;52.430;14.446;2023-07-20T09:03:48;3.22;;;1.77;;
78542;SDS011;67836;52.430;14.446;2023-07-20T09:06:33;4.25;;;1.90;;
78542;SDS011;67836;52.430;14.446;2023-07-20T09:09:18;2.75;;;1.52;;
78542;SDS011;67836;52.430;14.446;2023-07-20T09:12:03;2.20;;;1.15;;
78542;SDS011;67836;52.430;14.446;2023-07-20T09:14:47;3.22;;;1.77;;
78542;SDS011;67836;52.430;14.446;2023-07-20T09:17:31;3.55;;;2.05;;
78542;SDS011;67836;52.430;14.446;2023-07-20T09:20:16;3.95;;;1.80;;
78542;SDS011;67836;52.430;14.446;2023-07-20T09:23:05;1.80;;;1.30;;
78542;SDS011;67836;52.430;14.446;2023-07-20T09:25:50;2.17;;;1.50;;
78542;SDS011;67836;52.430;14.446;2023-07-20T09:28:47;1.98;;;1.20;;
78542;SDS011;67836;52.430;14.446;2023-07-20T09:31:38;2.67;;;1.60;;
78542;SDS011;67836;52.430;14.446;2023-07-20T09:34:24;2.72;;;1.23;;
78542;SDS011;67836;52.430;14.446;2023-07-20T09:37:08;2.72;;;1.80;;
78542;SDS011;67836;52.430;14.446;2023-07-20T09:39:53;4.13;;;1.40;;
78542;SDS011;67836;52.430;14.446;2023-07-20T09:42:37;2.40;;;1.40;;
78542;SDS011;67836;52.430;14.446;2023-07-20T09:45:21;3.22;;;1.13;;
78542;SDS011;67836;52.430;14.446;2023-07-20T09:48:06;2.35;;;1.10;;
78542;SDS011;67836;52.430;14.446;2023-07-20T09:50:50;2.60;;;1.50;;
78542;SDS011;67836;52.430;14.446;2023-07-20T09:53:35;2.85;;;1.70;;
78542;SDS011;67836;52.430;14.446;2023-07-20T09:56:21;0.70;;;0.50;;
78542;SDS011;67836;52.430;14.446;2023-07-20T09:59:05;2.08;;;1.20;;
78542;SDS011;67836;52.430;14.446;2023-07-20T10:01:49;1.52;;;0.95;;
78542;SDS011;67836;52.430;14.446;2023-07-20T10:04:36;1.65;;;1.10;;
78542;SDS011;67836;52.430;14.446;2023-07-20T10:07:21;1.23;;;0.70;;
78542;SDS011;67836;52.430;14.446;2023-07-20T10:10:06;1.70;;;1.17;;
78542;SDS011;67836;52.430;14.446;2023-07-20T10:12:52;2.00;;;0.98;;
78542;SDS011;67836;52.430;14.446;2023-07-20T10:15:36;3.17;;;1.60;;
78542;SDS011;67836;52.430;14.446;2023-07-20T10:18:47;1.33;;;0.98;;
78542;SDS011;67836;52.430;14.446;2023-07-20T10:21:35;2.50;;;1.40;;
78542;SDS011;67836;52.430;14.446;2023-07-20T10:24:23;1.70;;;1.10;;
78542;SDS011;67836;52.430;14.446;2023-07-20T10:27:08;2.25;;;1.70;;
78542;SDS011;67836;52.430;14.446;2023-07-20T10:29:52;3.92;;;1.30;;
78542;SDS011;67836;52.430;14.446;2023-07-20T10:32:39;3.05;;;1.20;;
78542;SDS011;67836;52.430;14.446;2023-07-20T10:35:24;1.85;;;0.77;;
78542;SDS011;67836;52.430;14.446;2023-07-20T10:38:08;3.55;;;1.27;;
78542;SDS011;67836;52.430;14.446;2023-07-20T10:40:54;2.83;;;1.30;;
78542;SDS011;67836;52.430;14.446;2023-07-20T10:43:41;1.48;;;1.00;;
78542;SDS011;67836;52.430;14.446;2023-07-20T10:49:22;1.33;;;1.05;;
78542;SDS011;67836;52.430;14.446;2023-07-20T10:52:10;3.10;;;1.10;;
78542;SDS011;67836;52.430;14.446;2023-07-20T10:54:54;1.50;;;1.10;;
78542;SDS011;67836;52.430;14.446;2023-07-20T10:57:38;1.25;;;1.10;;
78542;SDS011;67836;52.430;14.446;2023-07-20T11:00:23;2.63;;;1.15;;
78542;SDS011;67836;52.430;14.446;2023-07-20T11:03:08;0.73;;;0.60;;
78542;SDS011;67836;52.430;14.446;2023-07-20T11:05:52;1.58;;;0.82;;
78542;SDS011;67836;52.430;14.446;2023-07-20T11:08:40;2.25;;;1.10;;
78542;SDS011;67836;52.430;14.446;2023-07-20T11:11:28;1.38;;;1.00;;
78542;SDS011;67836;52.430;14.446;2023-07-20T11:14:23;2.50;;;1.00;;
78542;SDS011;67836;52.430;14.446;2023-07-20T11:17:15;1.15;;;0.75;;
78542;SDS011;67836;52.430;14.446;2023-07-20T11:20:00;1.20;;;0.88;;
78542;SDS011;67836;52.430;14.446;2023-07-20T11:22:44;2.25;;;1.30;;
78542;SDS011;67836;52.430;14.446;2023-07-20T11:25:37;1.98;;;0.90;;
78542;SDS011;67836;52.430;14.446;2023-07-20T11:28:22;1.48;;;0.88;;
78542;SDS011;67836;52.430;14.446;2023-07-20T11:31:06;1.05;;;0.52;;
78542;SDS011;67836;52.430;14.446;2023-07-20T11:33:50;1.60;;;0.50;;
78542;SDS011;67836;52.430;14.446;2023-07-20T11:36:34;1.08;;;0.70;;
78542;SDS011;67836;52.430;14.446;2023-07-20T11:39:19;1.25;;;0.60;;
78542;SDS011;67836;52.430;14.446;2023-07-20T11:42:05;1.38;;;0.68;;
78542;SDS011;67836;52.430;14.446;2023-07-20T11:44:51;0.98;;;0.70;;
78542;SDS011;67836;52.430;14.446;2023-07-20T11:47:39;3.13;;;0.90;;
78542;SDS011;67836;52.430;14.446;2023-07-20T11:50:24;2.00;;;0.60;;
78542;SDS011;67836;52.430;14.446;2023-07-20T11:53:08;0.82;;;0.68;;
78542;SDS011;67836;52.430;14.446;2023-07-20T11:55:52;3.10;;;0.90;;
78542;SDS011;67836;52.430;14.446;2023-07-20T11:58:41;1.70;;;0.75;;
78542;SDS011;67836;52.430;14.446;2023-07-20T12:01:27;0.95;;;0.52;;
78542;SDS011;67836;52.430;14.446;2023-07-20T12:04:19;3.97;;;0.70;;
78542;SDS011;67836;52.430;14.446;2023-07-20T12:07:03;4.38;;;0.85;;
78542;SDS011;67836;52.430;14.446;2023-07-20T12:10:03;0.85;;;0.75;;
78542;SDS011;67836;52.430;14.446;2023-07-20T12:12:48;0.77;;;0.60;;
78542;SDS011;67836;52.430;14.446;2023-07-20T12:15:32;0.70;;;0.50;;
78542;SDS011;67836;52.430;14.446;2023-07-20T12:18:16;0.80;;;0.50;;
78542;SDS011;67836;52.430;14.446;2023-07-20T12:21:00;1.83;;;0.70;;
78542;SDS011;67836;52.430;14.446;2023-07-20T12:23:44;1.90;;;0.63;;
78542;SDS011;67836;52.430;14.446;2023-07-20T12:26:29;2.15;;;0.82;;
78542;SDS011;67836;52.430;14.446;2023-07-20T12:29:14;1.77;;;0.80;;
78542;SDS011;67836;52.430;14.446;2023-07-20T12:31:57;2.80;;;0.93;;
78542;SDS011;67836;52.430;14.446;2023-07-20T12:34:41;0.70;;;0.65;;
78542;SDS011;67836;52.430;14.446;2023-07-20T12:37:25;1.58;;;0.70;;
78542;SDS011;67836;52.430;14.446;2023-07-20T12:40:10;1.02;;;0.60;;
78542;SDS011;67836;52.430;14.446;2023-07-20T12:42:56;1.45;;;0.90;;
78542;SDS011;67836;52.430;14.446;2023-07-20T12:45:41;0.90;;;0.80;;
78542;SDS011;67836;52.430;14.446;2023-07-20T12:48:26;1.52;;;0.95;;
78542;SDS011;67836;52.430;14.446;2023-07-20T12:51:10;1.25;;;0.70;;
78542;SDS011;67836;52.430;14.446;2023-07-20T12:53:55;0.80;;;0.80;;
78542;SDS011;67836;52.430;14.446;2023-07-20T12:56:39;0.60;;;0.60;;
78542;SDS011;67836;52.430;14.446;2023-07-20T12:59:22;2.33;;;0.60;;
78542;SDS011;67836;52.430;14.446;2023-07-20T13:02:06;0.68;;;0.43;;
78542;SDS011;67836;52.430;14.446;2023-07-20T13:04:51;1.00;;;0.45;;
78542;SDS011;67836;52.430;14.446;2023-07-20T13:07:35;1.38;;;0.60;;
78542;SDS011;67836;52.430;14.446;2023-07-20T13:10:21;0.35;;;0.35;;
78542;SDS011;67836;52.430;14.446;2023-07-20T13:13:05;1.05;;;0.40;;
78542;SDS011;67836;52.430;14.446;2023-07-20T13:15:49;1.10;;;0.45;;
78542;SDS011;67836;52.430;14.446;2023-07-20T13:18:33;0.88;;;0.50;;
78542;SDS011;67836;52.430;14.446;2023-07-20T13:21:17;0.20;;;0.20;;
78542;SDS011;67836;52.430;14.446;2023-07-20T13:24:06;0.65;;;0.30;;
78542;SDS011;67836;52.430;14.446;2023-07-20T13:26:50;0.35;;;0.30;;
78542;SDS011;67836;52.430;14.446;2023-07-20T13:29:34;0.60;;;0.50;;
78542;SDS011;67836;52.430;14.446;2023-07-20T13:32:18;1.85;;;0.60;;
78542;SDS011;67836;52.430;14.446;2023-07-20T13:35:02;0.57;;;0.40;;
78542;SDS011;67836;52.430;14.446;2023-07-20T13:37:46;0.73;;;0.35;;
78542;SDS011;67836;52.430;14.446;2023-07-20T13:40:30;0.77;;;0.35;;
78542;SDS011;67836;52.430;14.446;2023-07-20T13:43:15;0.25;;;0.25;;
78542;SDS011;67836;52.430;14.446;2023-07-20T13:45:59;0.82;;;0.47;;
78542;SDS011;67836;52.430;14.446;2023-07-20T13:48:43;0.63;;;0.43;;
78542;SDS011;67836;52.430;14.446;2023-07-20T13:51:27;0.60;;;0.30;;
78542;SDS011;67836;52.430;14.446;2023-07-20T13:54:11;1.55;;;0.47;;
78542;SDS011;67836;52.430;14.446;2023-07-20T13:56:55;1.33;;;0.50;;
78542;SDS011;67836;52.430;14.446;2023-07-20T13:59:40;0.63;;;0.50;;
78542;SDS011;67836;52.430;14.446;2023-07-20T14:02:24;0.43;;;0.43;;
78542;SDS011;67836;52.430;14.446;2023-07-20T14:05:08;0.93;;;0.60;;
78542;SDS011;67836;52.430;14.446;2023-07-20T14:07:53;1.75;;;0.60;;
78542;SDS011;67836;52.430;14.446;2023-07-20T14:10:37;1.17;;;0.40;;
78542;SDS011;67836;52.430;14.446;2023-07-20T14:13:21;0.82;;;0.50;;
78542;SDS011;67836;52.430;14.446;2023-07-20T14:16:06;0.60;;;0.50;;
78542;SDS011;67836;52.430;14.446;2023-07-20T14:18:50;1.83;;;0.60;;
78542;SDS011;67836;52.430;14.446;2023-07-20T14:21:34;0.30;;;0.30;;
78542;SDS011;67836;52.430;14.446;2023-07-20T14:24:18;1.90;;;0.22;;
78542;SDS011;67836;52.430;14.446;2023-07-20T14:27:02;0.40;;;0.40;;
78542;SDS011;67836;52.430;14.446;2023-07-20T14:29:46;1.83;;;0.40;;
78542;SDS011;67836;52.430;14.446;2023-07-20T14:32:30;0.47;;;0.35;;
78542;SDS011;67836;52.430;14.446;2023-07-20T14:35:16;0.80;;;0.43;;
78542;SDS011;67836;52.430;14.446;2023-07-20T14:38:00;0.20;;;0.20;;
78542;SDS011;67836;52.430;14.446;2023-07-20T14:40:44;1.02;;;0.40;;
78542;SDS011;67836;52.430;14.446;2023-07-20T14:43:29;2.10;;;0.30;;
78542;SDS011;67836;52.430;14.446;2023-07-20T14:46:13;0.40;;;0.20;;
78542;SDS011;67836;52.430;14.446;2023-07-20T14:48:57;0.60;;;0.25;;
78542;SDS011;67836;52.430;14.446;2023-07-20T14:51:41;1.63;;;0.50;;
78542;SDS011;67836;52.430;14.446;2023-07-20T14:54:30;0.40;;;0.40;;
78542;SDS011;67836;52.430;14.446;2023-07-20T14:57:14;0.38;;;0.28;;
78542;SDS011;67836;52.430;14.446;2023-07-20T14:59:59;0.30;;;0.28;;
78542;SDS011;67836;52.430;14.446;2023-07-20T15:02:43;0.82;;;0.50;;
78542;SDS011;67836;52.430;14.446;2023-07-20T15:05:30;0.80;;;0.50;;
78542;SDS011;67836;52.430;14.446;2023-07-20T15:08:14;2.92;;;0.60;;
78542;SDS011;67836;52.430;14.446;2023-07-20T15:10:58;0.82;;;0.40;;
78542;SDS011;67836;52.430;14.446;2023-07-20T15:13:41;1.25;;;0.60;;
78542;SDS011;67836;52.430;14.446;2023-07-20T15:16:26;0.80;;;0.50;;
78542;SDS011;67836;52.430;14.446;2023-07-20T15:19:10;2.22;;;0.77;;
78542;SDS011;67836;52.430;14.446;2023-07-20T15:21:57;0.43;;;0.32;;
78542;SDS011;67836;52.430;14.446;2023-07-20T15:24:41;3.42;;;0.70;;
78542;SDS011;67836;52.430;14.446;2023-07-20T15:27:25;0.98;;;0.38;;
78542;SDS011;67836;52.430;14.446;2023-07-20T15:30:09;1.27;;;0.70;;
78542;SDS011;67836;52.430;14.446;2023-07-20T15:32:53;0.70;;;0.40;;
78542;SDS011;67836;52.430;14.446;2023-07-20T15:35:39;0.82;;;0.50;;
78542;SDS011;67836;52.430;14.446;2023-07-20T15:38:23;1.38;;;0.63;;
78542;SDS011;67836;52.430;14.446;2023-07-20T15:41:07;0.82;;;0.50;;
78542;SDS011;67836;52.430;14.446;2023-07-20T15:43:51;1.02;;;0.60;;
78542;SDS011;67836;52.430;14.446;2023-07-20T15:49:23;1.20;;;0.52;;
78542;SDS011;67836;52.430;14.446;2023-07-20T15:52:11;1.10;;;0.70;;
78542;SDS011;67836;52.430;14.446;2023-07-20T15:54:56;2.85;;;0.90;;
78542;SDS011;67836;52.430;14.446;2023-07-20T15:57:41;0.55;;;0.55;;
78542;SDS011;67836;52.430;14.446;2023-07-20T16:00:24;0.77;;;0.50;;
78542;SDS011;67836;52.430;14.446;2023-07-20T16:03:08;1.17;;;0.82;;
78542;SDS011;67836;52.430;14.446;2023-07-20T16:05:54;0.93;;;0.70;;
78542;SDS011;67836;52.430;14.446;2023-07-20T16:08:38;1.63;;;0.77;;
78542;SDS011;67836;52.430;14.446;2023-07-20T16:11:22;1.75;;;0.68;;
78542;SDS011;67836;52.430;14.446;2023-07-20T16:14:07;0.60;;;0.50;;
78542;SDS011;67836;52.430;14.446;2023-07-20T16:16:51;1.67;;;0.73;;
78542;SDS011;67836;52.430;14.446;2023-07-20T16:19:35;2.20;;;0.77;;
78542;SDS011;67836;52.430;14.446;2023-07-20T16:22:19;1.85;;;0.80;;
78542;SDS011;67836;52.430;14.446;2023-07-20T16:25:04;2.05;;;0.68;;
78542;SDS011;67836;52.430;14.446;2023-07-20T16:27:48;1.33;;;0.77;;
78542;SDS011;67836;52.430;14.446;2023-07-20T16:30:32;1.98;;;0.60;;
78542;SDS011;67836;52.430;14.446;2023-07-20T16:33:16;2.05;;;0.60;;
78542;SDS011;67836;52.430;14.446;2023-07-20T16:36:00;1.63;;;0.70;;
78542;SDS011;67836;52.430;14.446;2023-07-20T16:38:44;0.85;;;0.70;;
78542;SDS011;67836;52.430;14.446;2023-07-20T16:41:29;1.35;;;0.70;;
78542;SDS011;67836;52.430;14.446;2023-07-20T16:44:13;1.45;;;0.70;;
78542;SDS011;67836;52.430;14.446;2023-07-20T16:46:57;1.45;;;0.75;;
78542;SDS011;67836;52.430;14.446;2023-07-20T16:49:41;1.42;;;0.70;;